Time;durP1;ratioP1;P1;durP2;ratioP2;P2;SDS_P1;SDS_P2;PMS_P1;PMS_P2;Temp;Humidity;BMP_temperature;BMP_pressure;BME280_temperature;BME280_humidity;BME280_pressure;Samples;Min_cycle;Max_cycle;Signal;HPM_P1;HPM_P2
2021/08/16 00:01:56;;;;;;;9.73;5.80;;;21.70;99.90;;;;;;5052270;28;20037;-50
2021/08/16 00:04:21;;;;;;;14.45;6.20;;;21.60;99.90;;;;;;5052525;28;20528;-49
2021/08/16 00:06:47;;;;;;;11.32;5.82;;;21.60;99.90;;;;;;5052581;28;20024;-50
2021/08/16 00:09:12;;;;;;;8.63;6.47;;;21.50;99.90;;;;;;5052186;28;20077;-53
2021/08/16 00:11:39;;;;;;;11.07;5.63;;;21.40;99.90;;;;;;5052413;28;20114;-50
2021/08/16 00:14:05;;;;;;;9.02;6.00;;;21.40;99.90;;;;;;5052474;28;20025;-49
2021/08/16 00:16:33;;;;;;;8.40;5.60;;;21.40;99.90;;;;;;5052129;28;20591;-52
2021/08/16 00:18:58;;;;;;;9.48;5.95;;;21.30;99.90;;;;;;5052029;28;20108;-48
2021/08/16 00:21:24;;;;;;;7.53;6.25;;;21.40;99.90;;;;;;5052060;28;20167;-48
2021/08/16 00:23:49;;;;;;;9.90;6.55;;;21.40;99.90;;;;;;5051746;28;20386;-50
2021/08/16 00:26:15;;;;;;;7.35;5.68;;;21.40;99.90;;;;;;5067361;22;20143;-56
2021/08/16 00:28:41;;;;;;;7.65;5.95;;;21.50;99.90;;;;;;5051194;28;20425;-57
2021/08/16 00:31:07;;;;;;;11.98;6.05;;;21.50;99.90;;;;;;5052113;28;20087;-53
2021/08/16 00:33:33;;;;;;;15.15;6.30;;;21.50;99.90;;;;;;5051909;28;20028;-57
2021/08/16 00:35:59;;;;;;;11.77;6.28;;;21.50;99.90;;;;;;5052044;28;20070;-53
2021/08/16 00:38:25;;;;;;;12.20;6.60;;;21.40;99.90;;;;;;5048681;28;20470;-53
2021/08/16 00:40:50;;;;;;;8.05;6.00;;;21.40;99.90;;;;;;5051485;28;20071;-53
2021/08/16 00:43:16;;;;;;;10.98;6.07;;;21.40;99.90;;;;;;5052387;28;20029;-55
2021/08/16 00:45:42;;;;;;;9.18;6.35;;;21.40;99.90;;;;;;5051010;28;20032;-59
2021/08/16 00:48:09;;;;;;;7.93;6.03;;;21.40;99.90;;;;;;5049296;28;20459;-59
2021/08/16 00:50:34;;;;;;;8.93;5.57;;;21.30;99.90;;;;;;5050745;28;20082;-59
2021/08/16 00:53:00;;;;;;;8.40;6.03;;;21.30;99.90;;;;;;5051641;28;20478;-59
2021/08/16 00:55:26;;;;;;;10.23;6.28;;;21.40;99.90;;;;;;5051535;28;20036;-58
2021/08/16 00:57:54;;;;;;;10.20;6.28;;;21.50;99.90;;;;;;5050899;28;20112;-59
2021/08/16 01:00:20;;;;;;;10.57;6.28;;;21.40;99.90;;;;;;5050460;28;20021;-59
2021/08/16 01:02:46;;;;;;;9.27;6.13;;;21.40;99.90;;;;;;5051502;28;20074;-59
2021/08/16 01:05:14;;;;;;;9.27;6.50;;;21.30;99.90;;;;;;5051463;28;20395;-59
2021/08/16 01:07:48;;;;;;;6.40;5.38;;;21.30;99.90;;;;;;5050611;28;20055;-59
2021/08/16 01:10:14;;;;;;;7.00;5.65;;;21.30;99.90;;;;;;5051346;28;20013;-58
2021/08/16 01:12:40;;;;;;;8.93;6.60;;;21.30;99.90;;;;;;5051267;28;20029;-59
2021/08/16 01:15:08;;;;;;;13.18;6.90;;;21.30;99.90;;;;;;5051347;28;20528;-59
2021/08/16 01:17:34;;;;;;;7.65;5.63;;;21.30;99.90;;;;;;5050536;28;20017;-59
2021/08/16 01:20:02;;;;;;;9.55;6.57;;;21.30;99.90;;;;;;5051191;28;20115;-59
2021/08/16 01:22:28;;;;;;;7.82;6.63;;;21.30;99.90;;;;;;5050972;28;20106;-59
2021/08/16 01:24:53;;;;;;;8.80;6.32;;;21.20;99.90;;;;;;5050838;28;20017;-58
2021/08/16 01:27:19;;;;;;;12.55;6.97;;;21.20;99.90;;;;;;5050379;28;20386;-57
2021/08/16 01:29:44;;;;;;;8.82;6.47;;;21.20;99.90;;;;;;5050892;28;20520;-58
2021/08/16 01:32:10;;;;;;;8.05;6.15;;;21.10;99.90;;;;;;5049560;28;20021;-59
2021/08/16 01:34:35;;;;;;;8.80;7.40;;;21.10;99.90;;;;;;5050724;28;20540;-59
2021/08/16 01:37:01;;;;;;;10.82;6.55;;;21.00;99.90;;;;;;5049864;28;20027;-57
2021/08/16 01:39:27;;;;;;;11.23;6.60;;;21.10;99.90;;;;;;5050479;28;20090;-58
2021/08/16 01:41:53;;;;;;;8.63;5.65;;;21.00;99.90;;;;;;5050838;28;20032;-57
2021/08/16 01:44:22;;;;;;;14.05;6.82;;;21.00;99.90;;;;;;5050688;28;20098;-57
2021/08/16 01:46:49;;;;;;;11.25;6.13;;;21.00;99.90;;;;;;5050592;28;20025;-59
2021/08/16 01:49:15;;;;;;;12.77;6.28;;;20.90;99.90;;;;;;5050158;28;20025;-56
2021/08/16 01:51:41;;;;;;;7.53;5.53;;;20.90;99.90;;;;;;5050621;28;20077;-59
2021/08/16 01:54:09;;;;;;;7.53;6.35;;;20.90;99.90;;;;;;5049174;28;20394;-58
2021/08/16 01:56:34;;;;;;;11.40;6.72;;;20.90;99.90;;;;;;5050433;28;20036;-59
2021/08/16 01:59:00;;;;;;;10.95;6.07;;;20.80;99.90;;;;;;5048489;28;20029;-59
2021/08/16 02:01:26;;;;;;;11.65;6.53;;;20.80;99.90;;;;;;5050181;28;20025;-59
2021/08/16 02:03:52;;;;;;;8.73;6.70;;;20.70;99.90;;;;;;5048918;28;20420;-58
2021/08/16 02:06:18;;;;;;;7.22;6.03;;;20.60;99.90;;;;;;5048924;28;20028;-58
2021/08/16 02:08:44;;;;;;;11.52;5.60;;;20.60;99.90;;;;;;5049608;28;20026;-59
2021/08/16 02:11:10;;;;;;;6.88;5.65;;;20.60;99.90;;;;;;5049511;28;20036;-56
2021/08/16 02:13:36;;;;;;;9.27;5.68;;;20.60;99.90;;;;;;5049150;28;20052;-57
2021/08/16 02:16:02;;;;;;;8.00;5.68;;;20.60;99.90;;;;;;5050351;28;20028;-56
2021/08/16 02:18:28;;;;;;;8.02;5.55;;;20.60;99.90;;;;;;5049630;28;20036;-54
2021/08/16 02:20:53;;;;;;;6.47;5.68;;;20.60;99.90;;;;;;5050410;28;20025;-55
2021/08/16 02:23:19;;;;;;;7.78;5.13;;;20.60;99.90;;;;;;5050283;28;20032;-59
2021/08/16 02:25:45;;;;;;;8.35;5.25;;;20.60;99.90;;;;;;5049936;28;20029;-58
2021/08/16 02:28:10;;;;;;;10.30;5.40;;;20.70;99.90;;;;;;5048271;28;20055;-59
2021/08/16 02:30:36;;;;;;;5.82;4.97;;;20.70;99.90;;;;;;5050137;28;20037;-57
2021/08/16 02:33:01;;;;;;;9.68;5.20;;;20.70;99.90;;;;;;5048890;28;20116;-59
2021/08/16 02:35:27;;;;;;;7.32;4.85;;;20.70;99.90;;;;;;5050423;28;20535;-58
2021/08/16 02:37:52;;;;;;;5.75;4.75;;;20.70;99.90;;;;;;5048195;28;20025;-59
2021/08/16 02:40:18;;;;;;;7.63;4.80;;;20.70;99.90;;;;;;5050278;28;20063;-59
2021/08/16 02:42:43;;;;;;;7.22;5.43;;;20.70;99.90;;;;;;5049954;28;20021;-58
2021/08/16 02:45:10;;;;;;;6.75;5.80;;;20.60;99.90;;;;;;5049990;28;20029;-58
2021/08/16 02:47:36;;;;;;;8.88;5.82;;;20.60;99.90;;;;;;5049251;28;20044;-57
2021/08/16 02:50:03;;;;;;;17.10;6.45;;;20.50;99.90;;;;;;5048571;28;20036;-58
2021/08/16 02:52:28;;;;;;;7.50;6.00;;;20.50;99.90;;;;;;5050010;28;20250;-57
2021/08/16 02:54:54;;;;;;;5.88;5.00;;;20.40;99.90;;;;;;5048477;28;20032;-57
2021/08/16 02:57:21;;;;;;;5.80;5.20;;;20.40;99.90;;;;;;5049424;28;20104;-56
2021/08/16 02:59:47;;;;;;;6.88;4.97;;;20.30;99.90;;;;;;5049888;28;20017;-58
2021/08/16 03:02:12;;;;;;;4.78;4.20;;;20.30;99.90;;;;;;5048438;28;20025;-58
2021/08/16 03:04:38;;;;;;;6.28;4.53;;;20.20;99.90;;;;;;5048347;28;20382;-59
2021/08/16 03:07:04;;;;;;;5.32;4.38;;;20.20;99.90;;;;;;5049758;28;20033;-55
2021/08/16 03:09:30;;;;;;;6.97;4.53;;;20.20;99.90;;;;;;5047788;28;20021;-58
2021/08/16 03:11:56;;;;;;;8.95;4.53;;;20.20;99.90;;;;;;5050058;28;20106;-58
2021/08/16 03:14:22;;;;;;;10.02;4.30;;;20.20;99.90;;;;;;5053407;28;20494;-58
2021/08/16 03:16:47;;;;;;;6.15;5.05;;;20.20;99.90;;;;;;5053747;28;20033;-59
2021/08/16 03:19:13;;;;;;;5.53;4.07;;;20.20;99.90;;;;;;5052636;28;20402;-58
2021/08/16 03:21:38;;;;;;;5.50;4.15;;;20.20;99.90;;;;;;5053316;28;20112;-59
2021/08/16 03:24:04;;;;;;;7.47;4.10;;;20.20;99.90;;;;;;5053162;28;20072;-56
2021/08/16 03:26:30;;;;;;;6.50;4.97;;;20.20;99.90;;;;;;5051934;28;20037;-57
2021/08/16 03:28:56;;;;;;;4.35;3.75;;;20.20;99.90;;;;;;5051461;28;20031;-57
2021/08/16 03:31:21;;;;;;;9.07;3.88;;;20.20;99.90;;;;;;5052027;28;20052;-57
2021/08/16 03:33:47;;;;;;;5.85;3.88;;;20.30;99.90;;;;;;5051853;28;20037;-59
2021/08/16 03:36:14;;;;;;;6.57;4.65;;;20.30;99.90;;;;;;5052215;28;20168;-60
2021/08/16 03:38:39;;;;;;;4.55;2.97;;;20.30;99.90;;;;;;5050573;28;20029;-57
2021/08/16 03:41:05;;;;;;;4.88;3.55;;;20.30;99.90;;;;;;5053248;28;20036;-59
2021/08/16 03:43:32;;;;;;;5.15;3.38;;;20.40;99.90;;;;;;5053280;28;20037;-59
2021/08/16 03:45:57;;;;;;;8.38;3.53;;;20.30;99.90;;;;;;5053150;28;20032;-59
2021/08/16 03:48:23;;;;;;;4.45;2.97;;;20.40;99.90;;;;;;5052434;28;20021;-59
2021/08/16 03:50:49;;;;;;;6.85;3.05;;;20.40;99.90;;;;;;5053243;28;20029;-59
2021/08/16 03:53:15;;;;;;;4.13;3.03;;;20.50;99.70;;;;;;5053088;28;20032;-58
2021/08/16 03:55:40;;;;;;;6.95;4.10;;;20.50;99.80;;;;;;5053184;28;20032;-59
2021/08/16 03:58:06;;;;;;;4.97;2.80;;;20.50;99.70;;;;;;5052816;28;20082;-59
2021/08/16 04:00:32;;;;;;;7.80;3.03;;;20.50;99.60;;;;;;5053250;28;20112;-58
2021/08/16 04:02:57;;;;;;;5.35;3.72;;;20.50;99.70;;;;;;5053335;28;20025;-59
2021/08/16 04:05:24;;;;;;;5.50;3.33;;;20.50;99.90;;;;;;5052083;28;20082;-59
2021/08/16 04:07:49;;;;;;;7.32;3.33;;;20.50;99.90;;;;;;5052508;28;20044;-57
2021/08/16 04:10:15;;;;;;;4.13;3.20;;;20.50;99.90;;;;;;5053100;28;20099;-57
2021/08/16 04:12:41;;;;;;;4.43;2.88;;;20.50;99.90;;;;;;5053207;28;20481;-57
2021/08/16 04:15:10;;;;;;;8.82;3.75;;;20.50;99.70;;;;;;5053043;28;20124;-57
2021/08/16 04:17:35;;;;;;;6.22;3.50;;;20.50;99.70;;;;;;5052318;28;20028;-59
2021/08/16 04:20:01;;;;;;;6.90;3.67;;;20.50;99.80;;;;;;5051628;28;20044;-60
2021/08/16 04:22:26;;;;;;;8.85;2.88;;;20.40;99.90;;;;;;5053011;28;20091;-56
2021/08/16 04:24:53;;;;;;;4.75;3.38;;;20.40;99.90;;;;;;5052328;28;20025;-58
2021/08/16 04:27:18;;;;;;;13.30;3.88;;;20.40;99.90;;;;;;5052194;28;20070;-56
2021/08/16 04:29:44;;;;;;;5.63;2.88;;;20.30;99.90;;;;;;5052652;28;20025;-54
2021/08/16 04:32:09;;;;;;;5.30;3.10;;;20.20;99.90;;;;;;5052686;28;20057;-59
2021/08/16 04:34:35;;;;;;;7.32;3.47;;;20.30;99.90;;;;;;5052236;28;20151;-59
2021/08/16 04:37:00;;;;;;;8.55;2.92;;;20.20;99.90;;;;;;5051046;28;20150;-59
2021/08/16 04:39:26;;;;;;;5.18;2.60;;;20.20;99.30;;;;;;5050323;28;20047;-59
2021/08/16 04:41:51;;;;;;;8.73;3.38;;;20.00;99.10;;;;;;5051090;28;20366;-58
2021/08/16 04:44:17;;;;;;;8.27;3.22;;;20.00;99.10;;;;;;5052468;28;20082;-57
2021/08/16 04:46:42;;;;;;;3.97;2.92;;;20.00;98.90;;;;;;5052257;28;20044;-55
2021/08/16 04:49:08;;;;;;;6.07;2.78;;;20.00;98.50;;;;;;5051564;28;20048;-58
2021/08/16 04:51:33;;;;;;;9.52;2.95;;;20.00;98.20;;;;;;5051656;28;20033;-58
2021/08/16 04:53:59;;;;;;;5.10;2.22;;;20.00;98.10;;;;;;5051700;28;20033;-59
2021/08/16 04:56:24;;;;;;;11.07;3.72;;;20.00;98.20;;;;;;5050389;28;20557;-59
2021/08/16 04:58:50;;;;;;;5.93;2.63;;;20.00;98.00;;;;;;5049923;28;20032;-58
2021/08/16 05:01:15;;;;;;;3.60;2.50;;;20.00;97.80;;;;;;5052061;28;20402;-57
2021/08/16 05:03:41;;;;;;;6.18;2.40;;;20.00;97.50;;;;;;5051774;28;20029;-59
2021/08/16 05:06:07;;;;;;;6.10;1.80;;;20.00;97.30;;;;;;5051357;28;20044;-64
2021/08/16 05:08:35;;;;;;;9.70;2.33;;;19.90;97.20;;;;;;5047574;28;20028;-49
2021/08/16 05:11:01;;;;;;;2.80;1.85;;;19.80;96.80;;;;;;5050373;28;20561;-52
2021/08/16 05:13:27;;;;;;;7.38;2.30;;;19.90;96.70;;;;;;5051205;28;20029;-58
2021/08/16 05:15:52;;;;;;;2.67;2.40;;;19.80;96.60;;;;;;5050629;28;20090;-54
2021/08/16 05:18:18;;;;;;;4.85;2.30;;;19.70;96.70;;;;;;5050109;28;20047;-57
2021/08/16 05:20:43;;;;;;;5.38;2.65;;;19.70;96.50;;;;;;5053872;28;20130;-56
2021/08/16 05:23:09;;;;;;;4.43;2.08;;;19.80;96.30;;;;;;5054841;28;20028;-59
2021/08/16 05:25:34;;;;;;;12.70;2.15;;;19.80;96.40;;;;;;5053632;28;20371;-58
2021/08/16 05:28:00;;;;;;;8.65;2.38;;;19.80;96.40;;;;;;5054078;28;20025;-59
2021/08/16 05:30:25;;;;;;;3.90;2.17;;;19.80;96.30;;;;;;5054527;28;20025;-59
2021/08/16 05:32:51;;;;;;;4.07;2.20;;;19.80;96.30;;;;;;5054393;28;20036;-59
2021/08/16 05:35:17;;;;;;;3.80;2.05;;;19.80;96.40;;;;;;5053827;28;20021;-57
2021/08/16 05:37:42;;;;;;;4.53;2.33;;;19.70;96.40;;;;;;5054095;28;20021;-58
2021/08/16 05:40:09;;;;;;;3.05;2.13;;;19.60;96.70;;;;;;5054133;28;20406;-59
2021/08/16 05:42:35;;;;;;;1.95;1.77;;;19.60;96.30;;;;;;5053072;28;20025;-58
2021/08/16 05:45:03;;;;;;;4.70;1.70;;;19.50;96.20;;;;;;5053619;28;20032;-59
2021/08/16 05:47:29;;;;;;;4.78;1.83;;;19.50;96.30;;;;;;5053638;28;20029;-58
2021/08/16 05:49:54;;;;;;;5.93;2.03;;;19.50;96.40;;;;;;5052992;28;20032;-60
2021/08/16 05:52:20;;;;;;;9.45;3.10;;;19.50;96.50;;;;;;5054246;28;20100;-58
2021/08/16 05:54:45;;;;;;;11.27;1.90;;;19.50;96.50;;;;;;5054462;28;20027;-59
2021/08/16 05:57:11;;;;;;;5.35;2.40;;;19.50;96.50;;;;;;5054397;28;20032;-59
2021/08/16 05:59:36;;;;;;;6.30;2.17;;;19.60;96.20;;;;;;5053287;28;20486;-59
2021/08/16 06:02:02;;;;;;;12.18;2.47;;;19.60;96.30;;;;;;5055108;28;20084;-57
2021/08/16 06:04:27;;;;;;;7.18;2.38;;;19.70;96.10;;;;;;5053302;28;20540;-59
2021/08/16 06:06:53;;;;;;;6.80;2.25;;;19.70;96.00;;;;;;5054416;28;20254;-58
2021/08/16 06:09:18;;;;;;;8.30;2.72;;;19.70;96.10;;;;;;5053545;28;20029;-57
2021/08/16 06:11:44;;;;;;;6.72;2.30;;;19.70;95.90;;;;;;5054413;28;20021;-58
2021/08/16 06:14:09;;;;;;;5.45;2.03;;;19.80;95.90;;;;;;5054713;28;20037;-58
2021/08/16 06:16:37;;;;;;;6.95;2.25;;;19.80;95.80;;;;;;5054582;28;20496;-58
2021/08/16 06:19:02;;;;;;;6.90;2.92;;;19.90;95.10;;;;;;5053622;28;20021;-55
2021/08/16 06:21:28;;;;;;;6.28;2.17;;;20.00;94.80;;;;;;5054793;28;20409;-59
2021/08/16 06:23:53;;;;;;;4.35;2.47;;;20.10;94.30;;;;;;5053893;28;20029;-58
2021/08/16 06:26:19;;;;;;;7.72;2.25;;;20.10;94.40;;;;;;5074313;22;20075;-48
2021/08/16 06:28:45;;;;;;;5.85;2.33;;;20.20;94.10;;;;;;5069360;28;20021;-48
2021/08/16 06:31:10;;;;;;;7.60;1.98;;;20.30;93.70;;;;;;5070105;28;20039;-47
2021/08/16 06:33:37;;;;;;;11.02;2.10;;;20.30;93.80;;;;;;5070147;28;20032;-48
2021/08/16 06:36:05;;;;;;;5.88;1.75;;;20.30;93.40;;;;;;5068784;28;20025;-52
2021/08/16 06:38:31;;;;;;;8.00;2.38;;;20.30;93.30;;;;;;5069273;28;20020;-50
2021/08/16 06:40:59;;;;;;;12.57;2.67;;;20.30;93.50;;;;;;5070037;28;20539;-48
2021/08/16 06:43:27;;;;;;;8.18;2.20;;;20.30;93.30;;;;;;5069745;28;20473;-49
2021/08/16 06:45:52;;;;;;;5.40;1.55;;;20.40;93.10;;;;;;5069850;28;20656;-49
2021/08/16 06:48:18;;;;;;;6.72;1.80;;;20.50;93.20;;;;;;5071897;28;20099;-50
2021/08/16 06:50:44;;;;;;;6.53;1.75;;;20.60;93.00;;;;;;5074627;28;20040;-51
2021/08/16 06:53:15;;;;;;;6.55;2.05;;;20.70;93.00;;;;;;5075138;28;20036;-48
2021/08/16 06:55:42;;;;;;;4.95;1.77;;;20.80;92.60;;;;;;5073649;28;20191;-48
2021/08/16 06:58:07;;;;;;;5.45;1.85;;;20.80;92.70;;;;;;5073082;28;20024;-51
2021/08/16 07:00:33;;;;;;;7.82;2.30;;;20.90;92.50;;;;;;5073667;28;20031;-50
2021/08/16 07:02:59;;;;;;;9.02;2.17;;;21.00;92.40;;;;;;5073767;28;20477;-52
2021/08/16 07:05:25;;;;;;;8.10;1.80;;;21.00;92.50;;;;;;5073587;28;20106;-47
2021/08/16 07:07:53;;;;;;;6.07;2.08;;;21.10;92.60;;;;;;5072654;28;20036;-49
2021/08/16 07:10:19;;;;;;;6.15;2.25;;;21.20;92.60;;;;;;5073485;28;20074;-48
2021/08/16 07:12:45;;;;;;;3.53;1.60;;;21.20;92.50;;;;;;5073448;28;20040;-50
2021/08/16 07:15:11;;;;;;;7.85;1.40;;;21.10;92.30;;;;;;5074068;28;20025;-51
2021/08/16 07:17:37;;;;;;;3.67;1.45;;;20.90;92.50;;;;;;5073106;28;20107;-50
2021/08/16 07:20:04;;;;;;;8.70;1.60;;;20.90;92.60;;;;;;5073464;28;20541;-49
2021/08/16 07:22:29;;;;;;;2.53;1.40;;;20.70;92.50;;;;;;5073210;28;20060;-51
2021/08/16 07:24:55;;;;;;;7.03;1.50;;;20.70;92.60;;;;;;5072720;28;20063;-52
2021/08/16 07:27:20;;;;;;;8.23;1.88;;;20.70;92.80;;;;;;5073051;28;20090;-51
2021/08/16 07:29:46;;;;;;;5.28;1.98;;;20.60;92.90;;;;;;5073450;28;20449;-47
2021/08/16 07:32:12;;;;;;;15.32;3.70;;;20.50;92.80;;;;;;5073446;28;20024;-50
2021/08/16 07:34:37;;;;;;;6.40;2.00;;;20.40;93.10;;;;;;5073133;28;20443;-49
2021/08/16 07:37:04;;;;;;;8.43;2.40;;;20.40;93.60;;;;;;5072906;28;20436;-45
2021/08/16 07:39:30;;;;;;;5.05;1.50;;;20.40;93.70;;;;;;5072964;28;20082;-50
2021/08/16 07:41:56;;;;;;;4.38;1.77;;;20.40;93.70;;;;;;5072751;28;20029;-51
2021/08/16 07:44:21;;;;;;;7.20;1.55;;;20.40;93.90;;;;;;5072628;28;20028;-47
2021/08/16 07:46:47;;;;;;;6.43;1.60;;;20.40;93.00;;;;;;5072398;28;20032;-47
2021/08/16 07:49:13;;;;;;;6.82;2.38;;;20.30;93.10;;;;;;5071913;28;20052;-45
2021/08/16 07:51:38;;;;;;;2.35;1.13;;;20.20;93.40;;;;;;5070639;28;20020;-47
2021/08/16 07:54:04;;;;;;;3.55;1.35;;;20.10;93.60;;;;;;5072407;28;20036;-47
2021/08/16 07:56:29;;;;;;;2.60;1.35;;;20.00;93.70;;;;;;5072578;28;20040;-47
2021/08/16 07:58:54;;;;;;;5.03;1.88;;;20.00;93.80;;;;;;5071242;28;20033;-51
2021/08/16 08:01:20;;;;;;;2.70;1.38;;;19.90;93.90;;;;;;5072396;28;20529;-49
2021/08/16 08:03:45;;;;;;;3.42;1.20;;;19.90;93.80;;;;;;5070732;28;20171;-55
2021/08/16 08:06:11;;;;;;;5.05;1.30;;;20.00;94.00;;;;;;5068531;28;20496;-50
2021/08/16 08:08:37;;;;;;;2.33;1.10;;;20.00;94.20;;;;;;5054855;28;20516;-52
2021/08/16 08:11:02;;;;;;;5.03;1.17;;;20.00;94.30;;;;;;5063120;28;20021;-47
2021/08/16 08:13:28;;;;;;;2.50;1.35;;;20.00;94.20;;;;;;5068782;28;20068;-49
2021/08/16 08:15:54;;;;;;;4.22;1.10;;;20.10;94.00;;;;;;5053427;28;20031;-49
2021/08/16 08:18:19;;;;;;;1.83;1.13;;;20.00;93.90;;;;;;5060114;28;20099;-52
2021/08/16 08:20:45;;;;;;;3.75;0.98;;;20.00;93.80;;;;;;5072100;28;20412;-49
2021/08/16 08:23:10;;;;;;;2.80;1.10;;;20.10;93.70;;;;;;5072544;28;20059;-48
2021/08/16 08:25:38;;;;;;;4.50;1.40;;;20.10;93.80;;;;;;5072327;28;20058;-49
2021/08/16 08:28:09;;;;;;;2.38;1.10;;;20.00;93.80;;;;;;5070654;28;20031;-47
2021/08/16 08:30:34;;;;;;;3.75;1.10;;;20.10;93.80;;;;;;5071277;28;20031;-50
2021/08/16 08:33:00;;;;;;;2.17;0.80;;;20.10;93.50;;;;;;5068612;28;20107;-48
2021/08/16 08:35:25;;;;;;;4.25;1.50;;;20.00;93.60;;;;;;5071010;28;20028;-46
2021/08/16 08:37:51;;;;;;;1.77;0.90;;;20.00;93.60;;;;;;5070564;28;20021;-48
2021/08/16 08:40:18;;;;;;;4.57;0.80;;;20.00;94.10;;;;;;5071600;28;20489;-47
2021/08/16 08:42:52;;;;;;;2.05;1.33;;;20.00;94.30;;;;;;5071010;28;20032;-52
2021/08/16 08:45:19;;;;;;;1.23;0.90;;;20.00;94.30;;;;;;5071500;28;20069;-51
2021/08/16 08:47:47;;;;;;;1.33;0.90;;;20.10;94.30;;;;;;5070183;28;20048;-49
2021/08/16 08:50:15;;;;;;;1.42;0.85;;;20.20;94.30;;;;;;5071521;28;20035;-50
2021/08/16 08:52:41;;;;;;;3.10;1.30;;;20.20;94.20;;;;;;5069682;28;20028;-51
2021/08/16 08:55:06;;;;;;;2.30;0.80;;;20.20;93.60;;;;;;5071019;28;20047;-46
2021/08/16 08:57:33;;;;;;;3.15;1.40;;;20.20;94.00;;;;;;5069761;28;20017;-50
2021/08/16 08:59:58;;;;;;;7.90;1.17;;;20.20;94.00;;;;;;5070425;28;21225;-53
2021/08/16 09:02:25;;;;;;;2.42;1.27;;;20.20;94.00;;;;;;5070362;28;20044;-54
2021/08/16 09:04:54;;;;;;;5.03;1.10;;;20.20;93.90;;;;;;5069407;28;20050;-54
2021/08/16 09:07:33;;;;;;;3.00;1.20;;;20.20;93.80;;;;;;5069955;28;20028;-52
2021/08/16 09:10:00;;;;;;;3.63;2.00;;;20.10;93.90;;;;;;5070505;28;20481;-45
2021/08/16 09:12:36;;;;;;;3.42;1.45;;;20.10;94.10;;;;;;5070964;28;20021;-52
2021/08/16 09:15:12;;;;;;;4.45;1.20;;;20.00;93.90;;;;;;5070892;28;20104;-53
2021/08/16 09:17:38;;;;;;;3.58;1.55;;;19.90;94.10;;;;;;5069859;28;20028;-51
2021/08/16 09:20:14;;;;;;;7.45;1.80;;;19.90;94.30;;;;;;5070598;28;20533;-47
2021/08/16 09:22:40;;;;;;;5.35;1.42;;;19.90;94.40;;;;;;5070443;28;20021;-48
2021/08/16 09:25:09;;;;;;;3.35;1.30;;;20.00;94.50;;;;;;5068967;28;20118;-51
2021/08/16 09:27:46;;;;;;;6.93;1.67;;;20.00;94.80;;;;;;5070113;28;20020;-49
2021/08/16 09:30:16;;;;;;;5.85;1.40;;;20.00;94.80;;;;;;5070848;28;20024;-48
2021/08/16 09:32:43;;;;;;;8.68;1.50;;;20.10;94.80;;;;;;5070166;28;20016;-50
2021/08/16 09:35:14;;;;;;;2.60;1.90;;;20.20;94.70;;;;;;5054456;28;20481;-50
2021/08/16 09:37:41;;;;;;;7.03;1.75;;;20.30;94.60;;;;;;5064785;28;20451;-54
2021/08/16 09:40:17;;;;;;;5.43;2.20;;;20.30;94.50;;;;;;5050379;28;20021;-51
2021/08/16 09:42:48;;;;;;;2.22;1.30;;;20.30;94.50;;;;;;5063458;28;20503;-49
2021/08/16 09:45:29;;;;;;;5.95;1.58;;;20.20;94.40;;;;;;5070567;28;20432;-50
2021/08/16 09:47:58;;;;;;;2.65;1.40;;;20.30;94.80;;;;;;5069393;28;20032;-50
2021/08/16 09:50:45;;;;;;;2.63;1.63;;;20.40;94.50;;;;;;5070549;28;20024;-56
2021/08/16 09:53:13;;;;;;;4.45;2.08;;;20.40;94.20;;;;;;5070113;28;20028;-53
2021/08/16 09:55:47;;;;;;;3.35;1.25;;;20.50;93.80;;;;;;5070655;28;20075;-52
2021/08/16 09:58:14;;;;;;;1.88;1.13;;;20.50;93.90;;;;;;5069938;28;20306;-49
2021/08/16 10:00:41;;;;;;;4.18;1.65;;;20.70;94.00;;;;;;5070248;28;20024;-50
2021/08/16 10:03:08;;;;;;;9.77;2.42;;;20.70;94.20;;;;;;5070453;28;20033;-54
2021/08/16 10:05:39;;;;;;;5.60;1.67;;;20.70;93.80;;;;;;5070358;28;20108;-46
2021/08/16 10:08:07;;;;;;;6.40;1.60;;;20.70;94.00;;;;;;5069865;28;20019;-53
2021/08/16 10:10:37;;;;;;;9.13;1.40;;;20.70;93.90;;;;;;5070258;28;20032;-48
2021/08/16 10:13:04;;;;;;;3.10;1.60;;;20.70;94.00;;;;;;5069543;28;20032;-61
2021/08/16 10:15:36;;;;;;;4.07;1.50;;;20.70;94.40;;;;;;5066859;28;20032;-48
2021/08/16 10:18:03;;;;;;;1.55;1.38;;;20.70;94.00;;;;;;5069472;28;20035;-45
2021/08/16 10:20:31;;;;;;;8.35;1.52;;;20.70;94.00;;;;;;5056338;28;20080;-49
2021/08/16 10:22:56;;;;;;;1.98;1.27;;;20.70;94.20;;;;;;5073260;28;20029;-54
2021/08/16 10:25:22;;;;;;;3.40;1.63;;;20.80;94.30;;;;;;5054153;28;20028;-55
2021/08/16 10:27:58;;;;;;;5.88;1.58;;;21.00;94.20;;;;;;5073074;28;20401;-52
2021/08/16 10:30:24;;;;;;;6.03;1.75;;;21.10;93.30;;;;;;5074919;28;20495;-48
2021/08/16 10:33:01;;;;;;;4.65;2.30;;;21.20;93.90;;;;;;5062963;28;20060;-49
2021/08/16 10:35:40;;;;;;;7.32;1.90;;;21.30;93.50;;;;;;5062993;28;20028;-56
2021/08/16 10:38:08;;;;;;;8.32;1.73;;;21.20;93.40;;;;;;5073097;28;20032;-53
2021/08/16 10:40:40;;;;;;;3.50;1.90;;;21.20;93.60;;;;;;5073937;28;20028;-54
2021/08/16 10:43:10;;;;;;;4.90;1.50;;;21.10;93.50;;;;;;5069368;28;20513;-52
2021/08/16 10:45:44;;;;;;;4.57;1.60;;;21.10;93.70;;;;;;5053801;28;20419;-53
2021/08/16 10:48:09;;;;;;;5.45;2.03;;;21.20;93.70;;;;;;5065723;28;20021;-54
2021/08/16 10:50:36;;;;;;;3.97;1.50;;;21.30;93.20;;;;;;5074022;28;20331;-47
2021/08/16 10:53:09;;;;;;;5.28;1.73;;;21.30;93.20;;;;;;5073811;28;20393;-51
2021/08/16 10:55:40;;;;;;;5.97;2.38;;;21.30;92.80;;;;;;5072334;28;20043;-53
2021/08/16 10:58:10;;;;;;;5.40;1.83;;;21.30;92.90;;;;;;5069619;28;20024;-47
2021/08/16 11:00:40;;;;;;;4.00;2.13;;;21.30;93.00;;;;;;5056425;28;20032;-61
2021/08/16 11:03:07;;;;;;;5.18;2.58;;;21.30;92.90;;;;;;5057053;28;20028;-63
2021/08/16 11:05:35;;;;;;;4.65;2.40;;;21.20;92.50;;;;;;5066877;28;20016;-63
2021/08/16 11:08:03;;;;;;;3.00;1.85;;;21.10;92.80;;;;;;5071841;28;20028;-63
2021/08/16 11:10:39;;;;;;;4.28;2.50;;;21.10;93.20;;;;;;5073314;28;20023;-58
2021/08/16 11:13:19;;;;;;;4.60;1.90;;;21.00;93.00;;;;;;5072495;28;20114;-58
2021/08/16 11:15:46;;;;;;;8.32;2.60;;;20.90;93.00;;;;;;5073039;28;20040;-53
2021/08/16 11:18:17;;;;;;;5.28;1.92;;;20.90;93.40;;;;;;5071233;28;20060;-47
2021/08/16 11:20:44;;;;;;;4.90;2.65;;;20.90;93.60;;;;;;5074187;28;20029;-50
2021/08/16 11:23:10;;;;;;;6.88;1.90;;;21.00;93.00;;;;;;5074202;28;20122;-47
2021/08/16 11:25:37;;;;;;;6.25;2.80;;;21.20;93.10;;;;;;5073091;28;20056;-50
2021/08/16 11:28:04;;;;;;;5.25;1.83;;;21.30;92.80;;;;;;5073044;28;20023;-51
2021/08/16 11:30:30;;;;;;;2.58;1.73;;;21.40;92.80;;;;;;5073574;28;20027;-49
2021/08/16 11:32:56;;;;;;;6.80;1.90;;;21.60;92.50;;;;;;5072097;28;20039;-47
2021/08/16 11:35:24;;;;;;;5.45;2.08;;;21.80;92.50;;;;;;5072928;28;20020;-50
2021/08/16 11:37:49;;;;;;;8.68;2.58;;;22.00;92.60;;;;;;5072593;28;20031;-49
2021/08/16 11:40:16;;;;;;;3.55;1.70;;;22.10;92.20;;;;;;5072793;28;20029;-48
2021/08/16 11:42:42;;;;;;;4.70;1.90;;;22.30;91.40;;;;;;5072325;28;20399;-45
2021/08/16 11:45:14;;;;;;;4.90;1.65;;;22.40;91.40;;;;;;5073003;28;20021;-48
2021/08/16 11:47:47;;;;;;;6.03;1.63;;;22.50;91.00;;;;;;5072632;28;20025;-47
2021/08/16 11:50:16;;;;;;;3.30;1.80;;;22.50;90.80;;;;;;5072551;28;20025;-49
2021/08/16 11:52:42;;;;;;;4.90;1.80;;;22.50;90.60;;;;;;5072651;28;20096;-51
2021/08/16 11:55:09;;;;;;;4.22;1.85;;;22.60;90.60;;;;;;5072666;28;20021;-46
2021/08/16 11:57:36;;;;;;;3.97;1.58;;;22.60;90.90;;;;;;5072855;28;20512;-49
2021/08/16 12:00:06;;;;;;;9.32;2.00;;;22.80;91.10;;;;;;5072484;28;20027;-46
2021/08/16 12:02:36;;;;;;;8.13;2.20;;;22.90;90.80;;;;;;5072567;28;20056;-47
2021/08/16 12:05:02;;;;;;;6.10;1.77;;;23.00;90.50;;;;;;5072605;28;20391;-51
2021/08/16 12:07:29;;;;;;;6.00;1.67;;;23.10;91.00;;;;;;5072227;28;20052;-50
2021/08/16 12:09:56;;;;;;;9.07;2.67;;;23.00;90.20;;;;;;5072269;28;20478;-49
2021/08/16 12:12:28;;;;;;;4.68;1.90;;;22.90;90.30;;;;;;5072326;28;20029;-48
2021/08/16 12:15:09;;;;;;;4.50;1.80;;;22.80;90.20;;;;;;5072524;28;20032;-52
2021/08/16 12:17:35;;;;;;;4.75;1.70;;;22.80;90.30;;;;;;5072122;28;20024;-48
2021/08/16 12:20:02;;;;;;;4.55;2.38;;;22.90;90.50;;;;;;5072059;28;20025;-51
2021/08/16 12:22:28;;;;;;;3.22;2.05;;;22.90;90.00;;;;;;5055488;28;20029;-52
2021/08/16 12:25:04;;;;;;;4.47;1.60;;;22.80;90.30;;;;;;5071587;28;20105;-50
2021/08/16 12:27:30;;;;;;;4.40;2.00;;;22.80;89.40;;;;;;5056585;22;20049;-58
2021/08/16 12:29:56;;;;;;;6.25;1.70;;;22.90;88.70;;;;;;5031949;28;20390;-56
2021/08/16 12:32:29;;;;;;;2.42;1.70;;;22.90;88.40;;;;;;5032080;28;20486;-53
2021/08/16 12:34:55;;;;;;;3.80;1.73;;;22.90;88.50;;;;;;5030718;28;20052;-55
2021/08/16 12:37:24;;;;;;;5.07;1.60;;;23.00;89.50;;;;;;5030858;28;20080;-56
2021/08/16 12:39:50;;;;;;;3.78;1.42;;;23.00;89.90;;;;;;5031811;28;20030;-57
2021/08/16 12:42:16;;;;;;;4.30;2.03;;;23.10;88.80;;;;;;5030457;28;20200;-54
2021/08/16 12:44:53;;;;;;;2.97;1.52;;;23.10;88.80;;;;;;5031232;28;20121;-52